sensor_id;sensor_type;location;lat;lon;timestamp;P1;durP1;ratioP1;P2;durP2;ratioP2
39098;SDS011;24844;52.380;7.018;2023-06-19T00:01:46;6.75;;;6.05;;
39098;SDS011;24844;52.380;7.018;2023-06-19T00:04:12;5.97;;;5.38;;
39098;SDS011;24844;52.380;7.018;2023-06-19T00:06:38;6.88;;;6.22;;
39098;SDS011;24844;52.380;7.018;2023-06-19T00:09:03;9.35;;;6.00;;
39098;SDS011;24844;52.380;7.018;2023-06-19T00:11:30;7.28;;;6.10;;
39098;SDS011;24844;52.380;7.018;2023-06-19T00:13:55;7.82;;;6.10;;
39098;SDS011;24844;52.380;7.018;2023-06-19T00:16:21;8.05;;;6.47;;
39098;SDS011;24844;52.380;7.018;2023-06-19T00:18:50;7.00;;;6.28;;
39098;SDS011;24844;52.380;7.018;2023-06-19T00:21:16;7.13;;;5.78;;
39098;SDS011;24844;52.380;7.018;2023-06-19T00:23:42;7.93;;;5.78;;
39098;SDS011;24844;52.380;7.018;2023-06-19T00:26:08;7.53;;;6.38;;
39098;SDS011;24844;52.380;7.018;2023-06-19T00:28:34;7.05;;;5.80;;
39098;SDS011;24844;52.380;7.018;2023-06-19T00:30:59;8.70;;;6.32;;
39098;SDS011;24844;52.380;7.018;2023-06-19T00:33:25;6.95;;;6.25;;
39098;SDS011;24844;52.380;7.018;2023-06-19T00:35:51;6.60;;;5.95;;
39098;SDS011;24844;52.380;7.018;2023-06-19T00:38:16;6.50;;;5.60;;
39098;SDS011;24844;52.380;7.018;2023-06-19T00:40:42;7.47;;;6.70;;
39098;SDS011;24844;52.380;7.018;2023-06-19T00:43:08;7.05;;;6.35;;
39098;SDS011;24844;52.380;7.018;2023-06-19T00:45:33;6.57;;;5.97;;
39098;SDS011;24844;52.380;7.018;2023-06-19T00:48:02;9.65;;;6.47;;
39098;SDS011;24844;52.380;7.018;2023-06-19T00:50:29;6.85;;;6.13;;
39098;SDS011;24844;52.380;7.018;2023-06-19T00:52:56;8.15;;;6.28;;
39098;SDS011;24844;52.380;7.018;2023-06-19T00:55:22;7.93;;;5.70;;
39098;SDS011;24844;52.380;7.018;2023-06-19T00:57:53;7.65;;;5.55;;
39098;SDS011;24844;52.380;7.018;2023-06-19T01:00:22;6.53;;;5.60;;
39098;SDS011;24844;52.380;7.018;2023-06-19T01:02:47;7.05;;;6.18;;
39098;SDS011;24844;52.380;7.018;2023-06-19T01:05:13;7.53;;;6.28;;
39098;SDS011;24844;52.380;7.018;2023-06-19T01:10:36;6.43;;;5.82;;
39098;SDS011;24844;52.380;7.018;2023-06-19T01:13:17;7.18;;;6.47;;
39098;SDS011;24844;52.380;7.018;2023-06-19T01:15:47;7.60;;;6.15;;
39098;SDS011;24844;52.380;7.018;2023-06-19T01:18:14;6.78;;;5.82;;
39098;SDS011;24844;52.380;7.018;2023-06-19T01:20:40;6.80;;;6.10;;
39098;SDS011;24844;52.380;7.018;2023-06-19T01:23:10;7.35;;;6.32;;
39098;SDS011;24844;52.380;7.018;2023-06-19T01:25:37;8.85;;;6.75;;
39098;SDS011;24844;52.380;7.018;2023-06-19T01:28:03;6.47;;;5.72;;
39098;SDS011;24844;52.380;7.018;2023-06-19T01:30:31;7.15;;;6.13;;
39098;SDS011;24844;52.380;7.018;2023-06-19T01:33:03;8.23;;;6.38;;
39098;SDS011;24844;52.380;7.018;2023-06-19T01:35:35;9.57;;;6.28;;
39098;SDS011;24844;52.380;7.018;2023-06-19T01:38:03;7.13;;;5.72;;
39098;SDS011;24844;52.380;7.018;2023-06-19T01:40:31;6.87;;;6.17;;
39098;SDS011;24844;52.380;7.018;2023-06-19T01:42:58;7.93;;;5.95;;
39098;SDS011;24844;52.380;7.018;2023-06-19T01:45:26;6.78;;;5.97;;
39098;SDS011;24844;52.380;7.018;2023-06-19T01:47:53;9.13;;;5.93;;
39098;SDS011;24844;52.380;7.018;2023-06-19T01:50:20;7.28;;;6.20;;
39098;SDS011;24844;52.380;7.018;2023-06-19T01:52:47;7.93;;;6.05;;
39098;SDS011;24844;52.380;7.018;2023-06-19T01:55:13;7.85;;;5.57;;
39098;SDS011;24844;52.380;7.018;2023-06-19T01:57:39;7.22;;;5.78;;
39098;SDS011;24844;52.380;7.018;2023-06-19T02:00:05;7.38;;;5.63;;
39098;SDS011;24844;52.380;7.018;2023-06-19T02:02:35;5.93;;;5.22;;
39098;SDS011;24844;52.380;7.018;2023-06-19T02:05:01;7.57;;;5.55;;
39098;SDS011;24844;52.380;7.018;2023-06-19T02:07:27;7.20;;;6.07;;
39098;SDS011;24844;52.380;7.018;2023-06-19T02:09:52;8.98;;;6.45;;
39098;SDS011;24844;52.380;7.018;2023-06-19T02:12:18;10.48;;;6.38;;
39098;SDS011;24844;52.380;7.018;2023-06-19T02:14:44;7.65;;;5.50;;
39098;SDS011;24844;52.380;7.018;2023-06-19T02:17:09;6.40;;;5.80;;
39098;SDS011;24844;52.380;7.018;2023-06-19T02:19:35;6.07;;;5.47;;
39098;SDS011;24844;52.380;7.018;2023-06-19T02:22:00;6.45;;;4.80;;
39098;SDS011;24844;52.380;7.018;2023-06-19T02:24:26;6.60;;;4.88;;
39098;SDS011;24844;52.380;7.018;2023-06-19T02:26:51;6.15;;;5.25;;
39098;SDS011;24844;52.380;7.018;2023-06-19T02:29:17;8.48;;;4.95;;
39098;SDS011;24844;52.380;7.018;2023-06-19T02:31:44;8.30;;;4.57;;
39098;SDS011;24844;52.380;7.018;2023-06-19T02:34:09;6.13;;;5.30;;
39098;SDS011;24844;52.380;7.018;2023-06-19T02:36:35;6.10;;;4.80;;
39098;SDS011;24844;52.380;7.018;2023-06-19T02:39:03;5.55;;;4.35;;
39098;SDS011;24844;52.380;7.018;2023-06-19T02:41:30;5.10;;;4.60;;
39098;SDS011;24844;52.380;7.018;2023-06-19T02:43:55;6.53;;;4.63;;
39098;SDS011;24844;52.380;7.018;2023-06-19T02:46:21;5.50;;;4.53;;
39098;SDS011;24844;52.380;7.018;2023-06-19T02:48:46;5.30;;;4.57;;
39098;SDS011;24844;52.380;7.018;2023-06-19T02:51:12;6.18;;;4.50;;
39098;SDS011;24844;52.380;7.018;2023-06-19T02:53:37;5.95;;;4.65;;
39098;SDS011;24844;52.380;7.018;2023-06-19T02:56:03;7.22;;;4.85;;
39098;SDS011;24844;52.380;7.018;2023-06-19T02:58:29;6.53;;;4.63;;
39098;SDS011;24844;52.380;7.018;2023-06-19T03:00:55;9.30;;;4.93;;
39098;SDS011;24844;52.380;7.018;2023-06-19T03:03:21;8.77;;;4.70;;
39098;SDS011;24844;52.380;7.018;2023-06-19T03:05:48;6.43;;;4.97;;
39098;SDS011;24844;52.380;7.018;2023-06-19T03:08:13;4.20;;;3.60;;
39098;SDS011;24844;52.380;7.018;2023-06-19T03:10:39;5.82;;;4.57;;
39098;SDS011;24844;52.380;7.018;2023-06-19T03:13:04;6.25;;;4.40;;
39098;SDS011;24844;52.380;7.018;2023-06-19T03:15:30;4.88;;;4.40;;
39098;SDS011;24844;52.380;7.018;2023-06-19T03:17:56;5.93;;;4.28;;
39098;SDS011;24844;52.380;7.018;2023-06-19T03:20:21;4.32;;;3.90;;
39098;SDS011;24844;52.380;7.018;2023-06-19T03:22:47;6.63;;;4.28;;
39098;SDS011;24844;52.380;7.018;2023-06-19T03:25:12;5.45;;;4.30;;
39098;SDS011;24844;52.380;7.018;2023-06-19T03:27:38;6.32;;;4.20;;
39098;SDS011;24844;52.380;7.018;2023-06-19T03:30:04;4.80;;;4.20;;
39098;SDS011;24844;52.380;7.018;2023-06-19T03:32:34;4.40;;;4.00;;
39098;SDS011;24844;52.380;7.018;2023-06-19T03:35:01;5.03;;;3.97;;
39098;SDS011;24844;52.380;7.018;2023-06-19T03:37:27;5.15;;;4.60;;
39098;SDS011;24844;52.380;7.018;2023-06-19T03:39:52;5.97;;;4.32;;
39098;SDS011;24844;52.380;7.018;2023-06-19T03:42:18;4.85;;;4.35;;
39098;SDS011;24844;52.380;7.018;2023-06-19T03:44:43;6.18;;;4.47;;
39098;SDS011;24844;52.380;7.018;2023-06-19T03:47:09;4.97;;;4.18;;
39098;SDS011;24844;52.380;7.018;2023-06-19T03:49:35;4.97;;;4.47;;
39098;SDS011;24844;52.380;7.018;2023-06-19T03:52:00;5.75;;;4.63;;
39098;SDS011;24844;52.380;7.018;2023-06-19T03:54:26;5.50;;;4.63;;
39098;SDS011;24844;52.380;7.018;2023-06-19T03:56:52;5.88;;;4.45;;
39098;SDS011;24844;52.380;7.018;2023-06-19T03:59:18;5.85;;;3.97;;
39098;SDS011;24844;52.380;7.018;2023-06-19T04:01:43;6.32;;;4.47;;
39098;SDS011;24844;52.380;7.018;2023-06-19T04:04:09;5.55;;;4.10;;
39098;SDS011;24844;52.380;7.018;2023-06-19T04:06:34;5.05;;;4.50;;
39098;SDS011;24844;52.380;7.018;2023-06-19T04:09:00;6.10;;;3.80;;
39098;SDS011;24844;52.380;7.018;2023-06-19T04:11:26;4.93;;;4.25;;
39098;SDS011;24844;52.380;7.018;2023-06-19T04:13:51;5.38;;;3.83;;
39098;SDS011;24844;52.380;7.018;2023-06-19T04:16:17;8.13;;;4.28;;
39098;SDS011;24844;52.380;7.018;2023-06-19T04:18:42;5.20;;;4.15;;
39098;SDS011;24844;52.380;7.018;2023-06-19T04:21:08;6.78;;;4.05;;
39098;SDS011;24844;52.380;7.018;2023-06-19T04:23:34;5.03;;;4.43;;
39098;SDS011;24844;52.380;7.018;2023-06-19T04:25:59;5.55;;;4.13;;
39098;SDS011;24844;52.380;7.018;2023-06-19T04:28:25;5.53;;;4.57;;
39098;SDS011;24844;52.380;7.018;2023-06-19T04:30:51;4.82;;;4.10;;
39098;SDS011;24844;52.380;7.018;2023-06-19T04:33:24;5.40;;;4.70;;
39098;SDS011;24844;52.380;7.018;2023-06-19T04:35:51;5.03;;;4.22;;
39098;SDS011;24844;52.380;7.018;2023-06-19T04:38:17;6.43;;;4.82;;
39098;SDS011;24844;52.380;7.018;2023-06-19T04:40:43;5.40;;;4.40;;
39098;SDS011;24844;52.380;7.018;2023-06-19T04:43:08;4.97;;;4.25;;
39098;SDS011;24844;52.380;7.018;2023-06-19T04:45:34;5.88;;;4.03;;
39098;SDS011;24844;52.380;7.018;2023-06-19T04:47:59;4.80;;;4.30;;
39098;SDS011;24844;52.380;7.018;2023-06-19T04:52:53;6.47;;;4.00;;
39098;SDS011;24844;52.380;7.018;2023-06-19T04:55:19;6.70;;;4.25;;
39098;SDS011;24844;52.380;7.018;2023-06-19T04:57:44;6.82;;;4.32;;
39098;SDS011;24844;52.380;7.018;2023-06-19T05:00:10;6.00;;;4.93;;
39098;SDS011;24844;52.380;7.018;2023-06-19T05:02:36;4.90;;;4.40;;
39098;SDS011;24844;52.380;7.018;2023-06-19T05:05:02;4.40;;;3.85;;
39098;SDS011;24844;52.380;7.018;2023-06-19T05:07:30;5.47;;;4.47;;
39098;SDS011;24844;52.380;7.018;2023-06-19T05:09:56;5.97;;;4.35;;
39098;SDS011;24844;52.380;7.018;2023-06-19T05:12:22;7.00;;;4.78;;
39098;SDS011;24844;52.380;7.018;2023-06-19T05:14:48;8.55;;;4.40;;
39098;SDS011;24844;52.380;7.018;2023-06-19T05:17:14;9.63;;;4.03;;
39098;SDS011;24844;52.380;7.018;2023-06-19T05:19:39;5.43;;;4.15;;
39098;SDS011;24844;52.380;7.018;2023-06-19T05:22:05;5.35;;;3.92;;
39098;SDS011;24844;52.380;7.018;2023-06-19T05:24:32;6.68;;;4.00;;
39098;SDS011;24844;52.380;7.018;2023-06-19T05:26:58;7.07;;;3.70;;
39098;SDS011;24844;52.380;7.018;2023-06-19T05:29:23;7.65;;;4.00;;
39098;SDS011;24844;52.380;7.018;2023-06-19T05:31:49;7.03;;;4.03;;
39098;SDS011;24844;52.380;7.018;2023-06-19T05:34:15;8.15;;;3.50;;
39098;SDS011;24844;52.380;7.018;2023-06-19T05:39:12;6.70;;;3.70;;
39098;SDS011;24844;52.380;7.018;2023-06-19T05:41:38;5.03;;;3.67;;
39098;SDS011;24844;52.380;7.018;2023-06-19T05:44:03;6.13;;;3.58;;
39098;SDS011;24844;52.380;7.018;2023-06-19T05:46:29;4.03;;;3.47;;
39098;SDS011;24844;52.380;7.018;2023-06-19T05:48:55;3.28;;;2.88;;
39098;SDS011;24844;52.380;7.018;2023-06-19T05:51:20;3.22;;;2.80;;
39098;SDS011;24844;52.380;7.018;2023-06-19T05:53:46;3.67;;;2.50;;
39098;SDS011;24844;52.380;7.018;2023-06-19T05:56:14;3.08;;;2.78;;
39098;SDS011;24844;52.380;7.018;2023-06-19T05:58:40;2.65;;;2.33;;
39098;SDS011;24844;52.380;7.018;2023-06-19T06:01:05;3.55;;;2.42;;
39098;SDS011;24844;52.380;7.018;2023-06-19T06:03:31;6.70;;;3.03;;
39098;SDS011;24844;52.380;7.018;2023-06-19T06:05:57;2.85;;;2.55;;
39098;SDS011;24844;52.380;7.018;2023-06-19T06:08:31;3.15;;;2.60;;
39098;SDS011;24844;52.380;7.018;2023-06-19T06:10:57;3.33;;;2.70;;
39098;SDS011;24844;52.380;7.018;2023-06-19T06:13:23;4.97;;;2.58;;
39098;SDS011;24844;52.380;7.018;2023-06-19T06:15:49;3.10;;;2.78;;
39098;SDS011;24844;52.380;7.018;2023-06-19T06:18:15;4.65;;;3.25;;
39098;SDS011;24844;52.380;7.018;2023-06-19T06:20:41;2.75;;;2.50;;
39098;SDS011;24844;52.380;7.018;2023-06-19T06:23:06;4.68;;;2.55;;
39098;SDS011;24844;52.380;7.018;2023-06-19T06:25:32;3.45;;;2.78;;
39098;SDS011;24844;52.380;7.018;2023-06-19T06:27:58;6.13;;;2.78;;
39098;SDS011;24844;52.380;7.018;2023-06-19T06:30:24;4.40;;;2.70;;
39098;SDS011;24844;52.380;7.018;2023-06-19T06:32:51;4.43;;;3.05;;
39098;SDS011;24844;52.380;7.018;2023-06-19T06:35:17;2.88;;;2.55;;
39098;SDS011;24844;52.380;7.018;2023-06-19T06:37:42;4.85;;;2.80;;
39098;SDS011;24844;52.380;7.018;2023-06-19T06:40:09;5.35;;;2.90;;
39098;SDS011;24844;52.380;7.018;2023-06-19T06:42:36;6.63;;;3.42;;
39098;SDS011;24844;52.380;7.018;2023-06-19T06:45:02;3.10;;;2.78;;
39098;SDS011;24844;52.380;7.018;2023-06-19T06:47:32;3.38;;;2.70;;
39098;SDS011;24844;52.380;7.018;2023-06-19T06:49:57;3.85;;;3.47;;
39098;SDS011;24844;52.380;7.018;2023-06-19T06:52:23;6.72;;;3.53;;
39098;SDS011;24844;52.380;7.018;2023-06-19T06:54:49;3.20;;;2.92;;
39098;SDS011;24844;52.380;7.018;2023-06-19T06:57:15;4.90;;;2.90;;
39098;SDS011;24844;52.380;7.018;2023-06-19T06:59:41;5.32;;;3.53;;
39098;SDS011;24844;52.380;7.018;2023-06-19T07:02:06;5.50;;;3.97;;
39098;SDS011;24844;52.380;7.018;2023-06-19T07:04:32;4.57;;;3.25;;
39098;SDS011;24844;52.380;7.018;2023-06-19T07:06:59;4.95;;;3.58;;
39098;SDS011;24844;52.380;7.018;2023-06-19T07:09:25;4.10;;;3.05;;
39098;SDS011;24844;52.380;7.018;2023-06-19T07:11:50;4.70;;;3.50;;
39098;SDS011;24844;52.380;7.018;2023-06-19T07:14:16;5.68;;;4.32;;
39098;SDS011;24844;52.380;7.018;2023-06-19T07:16:43;3.72;;;3.40;;
39098;SDS011;24844;52.380;7.018;2023-06-19T07:19:10;6.43;;;3.72;;
39098;SDS011;24844;52.380;7.018;2023-06-19T07:21:36;6.03;;;3.53;;
39098;SDS011;24844;52.380;7.018;2023-06-19T07:24:03;3.83;;;3.30;;
39098;SDS011;24844;52.380;7.018;2023-06-19T07:26:29;6.93;;;4.00;;
39098;SDS011;24844;52.380;7.018;2023-06-19T07:28:55;5.20;;;3.83;;
39098;SDS011;24844;52.380;7.018;2023-06-19T07:31:20;5.13;;;3.92;;
39098;SDS011;24844;52.380;7.018;2023-06-19T07:33:46;6.55;;;4.15;;
39098;SDS011;24844;52.380;7.018;2023-06-19T07:36:12;6.80;;;4.00;;
39098;SDS011;24844;52.380;7.018;2023-06-19T07:38:42;3.67;;;3.30;;
39098;SDS011;24844;52.380;7.018;2023-06-19T07:41:08;7.07;;;3.28;;
39098;SDS011;24844;52.380;7.018;2023-06-19T07:43:35;5.68;;;3.35;;
39098;SDS011;24844;52.380;7.018;2023-06-19T07:46:01;9.57;;;3.20;;
39098;SDS011;24844;52.380;7.018;2023-06-19T07:48:26;3.92;;;3.33;;
39098;SDS011;24844;52.380;7.018;2023-06-19T07:50:53;4.15;;;3.25;;
39098;SDS011;24844;52.380;7.018;2023-06-19T07:53:19;4.93;;;4.00;;
39098;SDS011;24844;52.380;7.018;2023-06-19T07:55:45;4.22;;;3.47;;
39098;SDS011;24844;52.380;7.018;2023-06-19T07:58:11;3.78;;;3.30;;
39098;SDS011;24844;52.380;7.018;2023-06-19T08:00:36;3.25;;;2.95;;
39098;SDS011;24844;52.380;7.018;2023-06-19T08:03:02;3.10;;;2.65;;
39098;SDS011;24844;52.380;7.018;2023-06-19T08:05:28;8.07;;;3.80;;
39098;SDS011;24844;52.380;7.018;2023-06-19T08:07:53;8.57;;;3.75;;
39098;SDS011;24844;52.380;7.018;2023-06-19T08:10:19;10.15;;;4.10;;
39098;SDS011;24844;52.380;7.018;2023-06-19T08:12:45;3.75;;;3.30;;
39098;SDS011;24844;52.380;7.018;2023-06-19T08:15:11;2.97;;;2.78;;
39098;SDS011;24844;52.380;7.018;2023-06-19T08:17:38;6.13;;;3.53;;
39098;SDS011;24844;52.380;7.018;2023-06-19T08:20:05;3.72;;;3.30;;
39098;SDS011;24844;52.380;7.018;2023-06-19T08:22:32;4.47;;;3.20;;
39098;SDS011;24844;52.380;7.018;2023-06-19T08:24:58;7.22;;;3.50;;
39098;SDS011;24844;52.380;7.018;2023-06-19T08:27:24;5.78;;;3.47;;
39098;SDS011;24844;52.380;7.018;2023-06-19T08:29:49;4.13;;;3.17;;
39098;SDS011;24844;52.380;7.018;2023-06-19T08:32:15;4.72;;;4.20;;
39098;SDS011;24844;52.380;7.018;2023-06-19T08:34:42;8.95;;;3.80;;
39098;SDS011;24844;52.380;7.018;2023-06-19T08:37:09;4.80;;;3.45;;
39098;SDS011;24844;52.380;7.018;2023-06-19T08:39:35;5.00;;;3.45;;
39098;SDS011;24844;52.380;7.018;2023-06-19T08:42:07;4.60;;;3.70;;
39098;SDS011;24844;52.380;7.018;2023-06-19T08:44:34;6.78;;;4.63;;
39098;SDS011;24844;52.380;7.018;2023-06-19T08:47:04;11.15;;;3.45;;
39098;SDS011;24844;52.380;7.018;2023-06-19T08:49:30;3.38;;;3.08;;
39098;SDS011;24844;52.380;7.018;2023-06-19T08:52:00;3.90;;;3.35;;
39098;SDS011;24844;52.380;7.018;2023-06-19T08:54:29;3.92;;;3.63;;
39098;SDS011;24844;52.380;7.018;2023-06-19T08:56:56;8.60;;;4.47;;
39098;SDS011;24844;52.380;7.018;2023-06-19T08:59:25;6.57;;;4.88;;
39098;SDS011;24844;52.380;7.018;2023-06-19T09:01:53;5.13;;;4.28;;
39098;SDS011;24844;52.380;7.018;2023-06-19T09:04:20;5.10;;;4.60;;
39098;SDS011;24844;52.380;7.018;2023-06-19T09:06:57;5.28;;;3.92;;
39098;SDS011;24844;52.380;7.018;2023-06-19T09:09:25;7.60;;;4.30;;
39098;SDS011;24844;52.380;7.018;2023-06-19T09:11:58;4.13;;;3.60;;
39098;SDS011;24844;52.380;7.018;2023-06-19T09:14:36;6.88;;;3.83;;
39098;SDS011;24844;52.380;7.018;2023-06-19T09:17:04;4.68;;;3.38;;
39098;SDS011;24844;52.380;7.018;2023-06-19T09:19:31;5.77;;;3.93;;
39098;SDS011;24844;52.380;7.018;2023-06-19T09:22:07;3.33;;;2.72;;
39098;SDS011;24844;52.380;7.018;2023-06-19T09:24:36;4.43;;;3.92;;
39098;SDS011;24844;52.380;7.018;2023-06-19T09:27:05;4.53;;;3.58;;
39098;SDS011;24844;52.380;7.018;2023-06-19T09:29:37;4.68;;;4.28;;
39098;SDS011;24844;52.380;7.018;2023-06-19T09:34:45;5.18;;;4.00;;
39098;SDS011;24844;52.380;7.018;2023-06-19T09:37:11;4.95;;;3.95;;
39098;SDS011;24844;52.380;7.018;2023-06-19T09:39:37;5.78;;;3.38;;
39098;SDS011;24844;52.380;7.018;2023-06-19T09:42:03;5.13;;;3.17;;
39098;SDS011;24844;52.380;7.018;2023-06-19T09:44:43;4.55;;;3.55;;
39098;SDS011;24844;52.380;7.018;2023-06-19T09:47:21;3.88;;;3.38;;
39098;SDS011;24844;52.380;7.018;2023-06-19T09:49:50;6.43;;;3.28;;
39098;SDS011;24844;52.380;7.018;2023-06-19T09:52:19;5.07;;;3.42;;
39098;SDS011;24844;52.380;7.018;2023-06-19T09:54:47;5.60;;;3.40;;
39098;SDS011;24844;52.380;7.018;2023-06-19T09:57:15;5.57;;;4.18;;
39098;SDS011;24844;52.380;7.018;2023-06-19T09:59:41;7.22;;;4.38;;
39098;SDS011;24844;52.380;7.018;2023-06-19T10:02:08;5.70;;;3.88;;
39098;SDS011;24844;52.380;7.018;2023-06-19T10:04:45;4.07;;;3.67;;
39098;SDS011;24844;52.380;7.018;2023-06-19T10:07:18;7.85;;;4.38;;
39098;SDS011;24844;52.380;7.018;2023-06-19T10:09:56;5.07;;;4.47;;
39098;SDS011;24844;52.380;7.018;2023-06-19T10:12:38;7.20;;;4.57;;
39098;SDS011;24844;52.380;7.018;2023-06-19T10:15:24;3.97;;;3.55;;
39098;SDS011;24844;52.380;7.018;2023-06-19T10:18:02;4.47;;;4.07;;
39098;SDS011;24844;52.380;7.018;2023-06-19T10:20:30;3.13;;;2.83;;
39098;SDS011;24844;52.380;7.018;2023-06-19T10:25:33;3.60;;;3.13;;
39098;SDS011;24844;52.380;7.018;2023-06-19T10:30:26;4.85;;;2.58;;
39098;SDS011;24844;52.380;7.018;2023-06-19T10:32:52;4.53;;;3.90;;
39098;SDS011;24844;52.380;7.018;2023-06-19T10:35:18;3.50;;;3.20;;
39098;SDS011;24844;52.380;7.018;2023-06-19T10:37:49;6.22;;;3.80;;
39098;SDS011;24844;52.380;7.018;2023-06-19T10:40:15;6.03;;;3.22;;
39098;SDS011;24844;52.380;7.018;2023-06-19T10:42:41;4.45;;;3.28;;
39098;SDS011;24844;52.380;7.018;2023-06-19T10:45:08;6.45;;;3.83;;
39098;SDS011;24844;52.380;7.018;2023-06-19T10:47:37;4.43;;;3.60;;
39098;SDS011;24844;52.380;7.018;2023-06-19T10:50:04;4.32;;;3.35;;
39098;SDS011;24844;52.380;7.018;2023-06-19T10:52:40;5.93;;;3.67;;
39098;SDS011;24844;52.380;7.018;2023-06-19T10:55:09;4.40;;;3.20;;
39098;SDS011;24844;52.380;7.018;2023-06-19T10:57:36;3.92;;;3.45;;
39098;SDS011;24844;52.380;7.018;2023-06-19T11:00:02;4.50;;;3.30;;
39098;SDS011;24844;52.380;7.018;2023-06-19T11:02:41;3.60;;;3.30;;
39098;SDS011;24844;52.380;7.018;2023-06-19T11:05:08;4.60;;;3.92;;
39098;SDS011;24844;52.380;7.018;2023-06-19T11:07:35;6.68;;;4.35;;
39098;SDS011;24844;52.380;7.018;2023-06-19T11:10:02;3.53;;;3.00;;
39098;SDS011;24844;52.380;7.018;2023-06-19T11:12:28;4.10;;;3.70;;
39098;SDS011;24844;52.380;7.018;2023-06-19T11:14:54;6.25;;;4.15;;
39098;SDS011;24844;52.380;7.018;2023-06-19T11:17:19;4.65;;;3.63;;
39098;SDS011;24844;52.380;7.018;2023-06-19T11:19:49;5.72;;;4.30;;
39098;SDS011;24844;52.380;7.018;2023-06-19T11:22:15;4.80;;;3.85;;
39098;SDS011;24844;52.380;7.018;2023-06-19T11:24:44;6.70;;;4.60;;
39098;SDS011;24844;52.380;7.018;2023-06-19T11:27:18;5.38;;;4.00;;
39098;SDS011;24844;52.380;7.018;2023-06-19T11:29:55;5.60;;;4.43;;
39098;SDS011;24844;52.380;7.018;2023-06-19T11:32:23;5.30;;;4.45;;
39098;SDS011;24844;52.380;7.018;2023-06-19T11:34:55;5.05;;;3.88;;
39098;SDS011;24844;52.380;7.018;2023-06-19T11:37:21;6.60;;;4.55;;
39098;SDS011;24844;52.380;7.018;2023-06-19T11:39:48;4.72;;;3.92;;
39098;SDS011;24844;52.380;7.018;2023-06-19T11:42:16;5.88;;;4.43;;
39098;SDS011;24844;52.380;7.018;2023-06-19T11:44:54;5.30;;;4.80;;
39098;SDS011;24844;52.380;7.018;2023-06-19T11:47:21;6.38;;;5.20;;
39098;SDS011;24844;52.380;7.018;2023-06-19T11:49:50;5.05;;;4.00;;
39098;SDS011;24844;52.380;7.018;2023-06-19T11:52:16;6.07;;;4.88;;
39098;SDS011;24844;52.380;7.018;2023-06-19T11:54:42;5.63;;;4.60;;
39098;SDS011;24844;52.380;7.018;2023-06-19T11:57:08;6.53;;;4.40;;
39098;SDS011;24844;52.380;7.018;2023-06-19T11:59:38;7.65;;;5.00;;
39098;SDS011;24844;52.380;7.018;2023-06-19T12:02:05;6.35;;;4.25;;
39098;SDS011;24844;52.380;7.018;2023-06-19T12:04:31;8.07;;;4.93;;
39098;SDS011;24844;52.380;7.018;2023-06-19T12:06:56;4.68;;;3.80;;
39098;SDS011;24844;52.380;7.018;2023-06-19T12:09:22;5.03;;;4.53;;
39098;SDS011;24844;52.380;7.018;2023-06-19T12:11:48;6.38;;;4.63;;
39098;SDS011;24844;52.380;7.018;2023-06-19T12:14:13;8.70;;;5.05;;
39098;SDS011;24844;52.380;7.018;2023-06-19T12:16:39;4.78;;;4.25;;
39098;SDS011;24844;52.380;7.018;2023-06-19T12:19:05;7.30;;;5.13;;
39098;SDS011;24844;52.380;7.018;2023-06-19T12:21:30;5.22;;;4.72;;
39098;SDS011;24844;52.380;7.018;2023-06-19T12:23:56;6.55;;;5.43;;
39098;SDS011;24844;52.380;7.018;2023-06-19T12:26:21;6.50;;;5.35;;
39098;SDS011;24844;52.380;7.018;2023-06-19T12:28:50;8.32;;;6.15;;
39098;SDS011;24844;52.380;7.018;2023-06-19T12:31:16;7.43;;;5.75;;
39098;SDS011;24844;52.380;7.018;2023-06-19T12:33:42;7.90;;;5.28;;
39098;SDS011;24844;52.380;7.018;2023-06-19T12:36:11;6.47;;;4.47;;
39098;SDS011;24844;52.380;7.018;2023-06-19T12:38:38;5.82;;;4.38;;
39098;SDS011;24844;52.380;7.018;2023-06-19T12:41:04;6.45;;;4.38;;
39098;SDS011;24844;52.380;7.018;2023-06-19T12:43:30;8.95;;;5.05;;
39098;SDS011;24844;52.380;7.018;2023-06-19T12:45:59;6.38;;;4.45;;
39098;SDS011;24844;52.380;7.018;2023-06-19T12:48:25;6.03;;;4.57;;
39098;SDS011;24844;52.380;7.018;2023-06-19T12:50:52;6.60;;;4.55;;
39098;SDS011;24844;52.380;7.018;2023-06-19T12:53:18;5.10;;;4.60;;
39098;SDS011;24844;52.380;7.018;2023-06-19T12:55:44;5.20;;;4.70;;
39098;SDS011;24844;52.380;7.018;2023-06-19T12:58:10;8.35;;;5.15;;
39098;SDS011;24844;52.380;7.018;2023-06-19T13:00:36;5.68;;;4.93;;
39098;SDS011;24844;52.380;7.018;2023-06-19T13:03:02;9.95;;;5.68;;
39098;SDS011;24844;52.380;7.018;2023-06-19T13:05:28;6.78;;;5.38;;
39098;SDS011;24844;52.380;7.018;2023-06-19T13:07:54;8.50;;;4.65;;
39098;SDS011;24844;52.380;7.018;2023-06-19T13:10:19;5.43;;;4.40;;
39098;SDS011;24844;52.380;7.018;2023-06-19T13:12:45;6.35;;;4.85;;
39098;SDS011;24844;52.380;7.018;2023-06-19T13:15:11;6.03;;;5.43;;
39098;SDS011;24844;52.380;7.018;2023-06-19T13:17:36;5.00;;;4.45;;
39098;SDS011;24844;52.380;7.018;2023-06-19T13:20:02;5.63;;;4.82;;
39098;SDS011;24844;52.380;7.018;2023-06-19T13:22:29;6.05;;;5.43;;
39098;SDS011;24844;52.380;7.018;2023-06-19T13:24:55;5.30;;;4.57;;
39098;SDS011;24844;52.380;7.018;2023-06-19T13:27:21;5.18;;;4.40;;
39098;SDS011;24844;52.380;7.018;2023-06-19T13:29:47;5.78;;;4.70;;
39098;SDS011;24844;52.380;7.018;2023-06-19T13:32:12;8.65;;;5.07;;
39098;SDS011;24844;52.380;7.018;2023-06-19T13:34:38;7.85;;;4.70;;
39098;SDS011;24844;52.380;7.018;2023-06-19T13:37:04;8.07;;;4.97;;
39098;SDS011;24844;52.380;7.018;2023-06-19T13:39:29;8.60;;;5.70;;
39098;SDS011;24844;52.380;7.018;2023-06-19T13:41:55;6.50;;;5.80;;
39098;SDS011;24844;52.380;7.018;2023-06-19T13:44:21;6.18;;;5.57;;
39098;SDS011;24844;52.380;7.018;2023-06-19T13:46:46;5.88;;;5.20;;
39098;SDS011;24844;52.380;7.018;2023-06-19T13:49:12;7.35;;;5.85;;
39098;SDS011;24844;52.380;7.018;2023-06-19T13:51:38;7.82;;;5.78;;
39098;SDS011;24844;52.380;7.018;2023-06-19T13:54:04;8.02;;;5.82;;
39098;SDS011;24844;52.380;7.018;2023-06-19T13:56:30;8.52;;;6.22;;
39098;SDS011;24844;52.380;7.018;2023-06-19T13:58:57;10.10;;;5.82;;
39098;SDS011;24844;52.380;7.018;2023-06-19T14:01:23;6.50;;;5.47;;
39098;SDS011;24844;52.380;7.018;2023-06-19T14:03:50;7.35;;;6.15;;
39098;SDS011;24844;52.380;7.018;2023-06-19T14:06:16;8.10;;;5.53;;
39098;SDS011;24844;52.380;7.018;2023-06-19T14:08:42;6.70;;;5.15;;
39098;SDS011;24844;52.380;7.018;2023-06-19T14:11:07;7.20;;;4.90;;
39098;SDS011;24844;52.380;7.018;2023-06-19T14:13:33;6.15;;;5.53;;
39098;SDS011;24844;52.380;7.018;2023-06-19T14:15:59;9.27;;;5.82;;
39098;SDS011;24844;52.380;7.018;2023-06-19T14:18:24;5.57;;;4.63;;
39098;SDS011;24844;52.380;7.018;2023-06-19T14:20:50;5.63;;;5.07;;
39098;SDS011;24844;52.380;7.018;2023-06-19T14:23:16;8.88;;;5.53;;
39098;SDS011;24844;52.380;7.018;2023-06-19T14:25:41;5.70;;;5.13;;
39098;SDS011;24844;52.380;7.018;2023-06-19T14:28:07;5.65;;;4.70;;
39098;SDS011;24844;52.380;7.018;2023-06-19T14:30:32;10.98;;;5.20;;
39098;SDS011;24844;52.380;7.018;2023-06-19T14:32:58;8.13;;;4.95;;
39098;SDS011;24844;52.380;7.018;2023-06-19T14:35:24;4.88;;;4.40;;
39098;SDS011;24844;52.380;7.018;2023-06-19T14:37:49;6.28;;;5.63;;
39098;SDS011;24844;52.380;7.018;2023-06-19T14:40:15;5.90;;;5.30;;
39098;SDS011;24844;52.380;7.018;2023-06-19T14:42:40;7.82;;;5.15;;
39098;SDS011;24844;52.380;7.018;2023-06-19T14:45:06;6.22;;;5.50;;
39098;SDS011;24844;52.380;7.018;2023-06-19T14:47:32;5.63;;;5.00;;
39098;SDS011;24844;52.380;7.018;2023-06-19T14:49:58;5.32;;;4.63;;
39098;SDS011;24844;52.380;7.018;2023-06-19T14:52:24;7.47;;;5.00;;
39098;SDS011;24844;52.380;7.018;2023-06-19T14:54:55;6.57;;;4.97;;
39098;SDS011;24844;52.380;7.018;2023-06-19T14:57:24;6.38;;;5.30;;
39098;SDS011;24844;52.380;7.018;2023-06-19T14:59:51;5.53;;;4.97;;
39098;SDS011;24844;52.380;7.018;2023-06-19T15:02:16;7.22;;;5.35;;